sensor_id;sensor_type;location;lat;lon;timestamp;temperature;humidity
5924;DHT22;2987;50.884;14.818;2022-07-23T00:02:16;16.60;99.90
5924;DHT22;2987;50.884;14.818;2022-07-23T00:04:42;16.60;99.90
5924;DHT22;2987;50.884;14.818;2022-07-23T00:07:08;16.60;99.90
5924;DHT22;2987;50.884;14.818;2022-07-23T00:09:34;16.60;99.90
5924;DHT22;2987;50.884;14.818;2022-07-23T00:12:01;16.60;99.90
5924;DHT22;2987;50.884;14.818;2022-07-23T00:14:27;16.60;99.90
5924;DHT22;2987;50.884;14.818;2022-07-23T00:16:54;16.50;99.90
5924;DHT22;2987;50.884;14.818;2022-07-23T00:19:20;16.50;99.90
5924;DHT22;2987;50.884;14.818;2022-07-23T00:21:46;16.50;99.90
5924;DHT22;2987;50.884;14.818;2022-07-23T00:24:12;16.50;99.90
5924;DHT22;2987;50.884;14.818;2022-07-23T00:26:38;16.50;99.90
5924;DHT22;2987;50.884;14.818;2022-07-23T00:29:05;16.50;99.90
5924;DHT22;2987;50.884;14.818;2022-07-23T00:31:31;16.40;99.90
5924;DHT22;2987;50.884;14.818;2022-07-23T00:33:57;16.40;99.90
5924;DHT22;2987;50.884;14.818;2022-07-23T00:36:27;16.40;99.90
5924;DHT22;2987;50.884;14.818;2022-07-23T00:38:54;16.40;99.90
5924;DHT22;2987;50.884;14.818;2022-07-23T00:41:21;16.30;99.90
5924;DHT22;2987;50.884;14.818;2022-07-23T00:43:48;16.30;99.90
5924;DHT22;2987;50.884;14.818;2022-07-23T00:46:19;16.30;99.90
5924;DHT22;2987;50.884;14.818;2022-07-23T00:48:46;16.30;99.90
5924;DHT22;2987;50.884;14.818;2022-07-23T00:51:12;16.30;99.90
5924;DHT22;2987;50.884;14.818;2022-07-23T00:53:39;16.30;99.90
5924;DHT22;2987;50.884;14.818;2022-07-23T00:56:06;16.30;99.90
5924;DHT22;2987;50.884;14.818;2022-07-23T00:58:35;16.30;99.90
5924;DHT22;2987;50.884;14.818;2022-07-23T01:01:02;16.30;99.90
5924;DHT22;2987;50.884;14.818;2022-07-23T01:03:29;16.20;99.90
5924;DHT22;2987;50.884;14.818;2022-07-23T01:05:55;16.20;99.90
5924;DHT22;2987;50.884;14.818;2022-07-23T01:08:21;16.20;99.90
5924;DHT22;2987;50.884;14.818;2022-07-23T01:10:48;16.10;99.90
5924;DHT22;2987;50.884;14.818;2022-07-23T01:13:15;16.10;99.90
5924;DHT22;2987;50.884;14.818;2022-07-23T01:15:41;16.10;99.90
5924;DHT22;2987;50.884;14.818;2022-07-23T01:18:33;16.00;99.90
5924;DHT22;2987;50.884;14.818;2022-07-23T01:20:59;16.00;99.90
5924;DHT22;2987;50.884;14.818;2022-07-23T01:23:25;16.00;99.90
5924;DHT22;2987;50.884;14.818;2022-07-23T01:25:55;15.90;99.90
5924;DHT22;2987;50.884;14.818;2022-07-23T01:28:23;16.00;99.90
5924;DHT22;2987;50.884;14.818;2022-07-23T01:30:50;15.90;99.90
5924;DHT22;2987;50.884;14.818;2022-07-23T01:33:16;15.90;99.90
5924;DHT22;2987;50.884;14.818;2022-07-23T01:35:43;16.00;99.90
5924;DHT22;2987;50.884;14.818;2022-07-23T01:38:11;16.00;99.90
5924;DHT22;2987;50.884;14.818;2022-07-23T01:40:39;16.00;99.90
5924;DHT22;2987;50.884;14.818;2022-07-23T01:43:06;15.90;99.90
5924;DHT22;2987;50.884;14.818;2022-07-23T01:45:34;15.90;99.90
5924;DHT22;2987;50.884;14.818;2022-07-23T01:48:00;15.90;99.90
5924;DHT22;2987;50.884;14.818;2022-07-23T01:50:26;15.90;99.90
5924;DHT22;2987;50.884;14.818;2022-07-23T01:53:05;15.90;99.90
5924;DHT22;2987;50.884;14.818;2022-07-23T01:55:31;15.90;99.90
5924;DHT22;2987;50.884;14.818;2022-07-23T01:57:57;15.90;99.90
5924;DHT22;2987;50.884;14.818;2022-07-23T02:00:28;15.90;99.90
5924;DHT22;2987;50.884;14.818;2022-07-23T02:02:54;15.90;99.90
5924;DHT22;2987;50.884;14.818;2022-07-23T02:05:26;15.90;99.90
5924;DHT22;2987;50.884;14.818;2022-07-23T02:07:55;15.90;99.90
5924;DHT22;2987;50.884;14.818;2022-07-23T02:10:21;15.90;99.90
5924;DHT22;2987;50.884;14.818;2022-07-23T02:12:47;15.90;99.90
5924;DHT22;2987;50.884;14.818;2022-07-23T02:15:17;15.80;99.90
5924;DHT22;2987;50.884;14.818;2022-07-23T02:17:43;15.80;99.90
5924;DHT22;2987;50.884;14.818;2022-07-23T02:20:11;15.70;99.90
5924;DHT22;2987;50.884;14.818;2022-07-23T02:22:38;15.70;99.90
5924;DHT22;2987;50.884;14.818;2022-07-23T02:25:06;15.60;99.90
5924;DHT22;2987;50.884;14.818;2022-07-23T02:27:34;15.60;99.90
5924;DHT22;2987;50.884;14.818;2022-07-23T02:30:01;15.50;99.90
5924;DHT22;2987;50.884;14.818;2022-07-23T02:32:29;15.50;99.90
5924;DHT22;2987;50.884;14.818;2022-07-23T02:34:55;15.50;99.90
5924;DHT22;2987;50.884;14.818;2022-07-23T02:37:21;15.50;99.90
5924;DHT22;2987;50.884;14.818;2022-07-23T02:39:47;15.50;99.90
5924;DHT22;2987;50.884;14.818;2022-07-23T02:42:15;15.50;99.90
5924;DHT22;2987;50.884;14.818;2022-07-23T02:44:42;15.50;99.90
5924;DHT22;2987;50.884;14.818;2022-07-23T02:47:09;15.50;99.90
5924;DHT22;2987;50.884;14.818;2022-07-23T02:49:35;15.50;99.90
5924;DHT22;2987;50.884;14.818;2022-07-23T02:52:04;15.50;99.90
5924;DHT22;2987;50.884;14.818;2022-07-23T02:54:31;15.40;99.90
5924;DHT22;2987;50.884;14.818;2022-07-23T02:56:57;15.50;99.90
5924;DHT22;2987;50.884;14.818;2022-07-23T02:59:23;15.50;99.90
5924;DHT22;2987;50.884;14.818;2022-07-23T03:01:49;15.50;99.90
5924;DHT22;2987;50.884;14.818;2022-07-23T03:04:17;15.50;99.90
5924;DHT22;2987;50.884;14.818;2022-07-23T03:06:43;15.50;99.90
5924;DHT22;2987;50.884;14.818;2022-07-23T03:09:09;15.50;99.90
5924;DHT22;2987;50.884;14.818;2022-07-23T03:11:38;15.50;99.90
5924;DHT22;2987;50.884;14.818;2022-07-23T03:14:32;15.50;99.90
5924;DHT22;2987;50.884;14.818;2022-07-23T03:16:58;15.50;99.90
5924;DHT22;2987;50.884;14.818;2022-07-23T03:19:26;15.40;99.90
5924;DHT22;2987;50.884;14.818;2022-07-23T03:21:52;15.40;99.90
5924;DHT22;2987;50.884;14.818;2022-07-23T03:24:18;15.40;99.90
5924;DHT22;2987;50.884;14.818;2022-07-23T03:26:44;15.30;99.90
5924;DHT22;2987;50.884;14.818;2022-07-23T03:29:12;15.30;99.90
5924;DHT22;2987;50.884;14.818;2022-07-23T03:31:38;15.30;99.90
5924;DHT22;2987;50.884;14.818;2022-07-23T03:34:04;15.30;99.90
5924;DHT22;2987;50.884;14.818;2022-07-23T03:36:30;15.30;99.90
5924;DHT22;2987;50.884;14.818;2022-07-23T03:38:57;15.30;99.90
5924;DHT22;2987;50.884;14.818;2022-07-23T03:41:25;15.30;99.90
5924;DHT22;2987;50.884;14.818;2022-07-23T03:43:51;15.30;99.90
5924;DHT22;2987;50.884;14.818;2022-07-23T03:46:17;15.40;99.90
5924;DHT22;2987;50.884;14.818;2022-07-23T03:48:43;15.40;99.90
5924;DHT22;2987;50.884;14.818;2022-07-23T03:51:09;15.50;99.90
5924;DHT22;2987;50.884;14.818;2022-07-23T03:53:37;15.40;99.90
5924;DHT22;2987;50.884;14.818;2022-07-23T03:56:03;15.50;99.90
5924;DHT22;2987;50.884;14.818;2022-07-23T03:58:30;15.50;99.90
5924;DHT22;2987;50.884;14.818;2022-07-23T04:00:56;15.60;99.90
5924;DHT22;2987;50.884;14.818;2022-07-23T04:03:22;15.70;99.90
5924;DHT22;2987;50.884;14.818;2022-07-23T04:05:48;15.70;99.90
5924;DHT22;2987;50.884;14.818;2022-07-23T04:08:15;15.70;99.90
5924;DHT22;2987;50.884;14.818;2022-07-23T04:10:44;15.80;99.90
5924;DHT22;2987;50.884;14.818;2022-07-23T04:13:11;15.90;99.90
5924;DHT22;2987;50.884;14.818;2022-07-23T04:15:38;15.90;99.90
5924;DHT22;2987;50.884;14.818;2022-07-23T04:18:05;16.00;99.90
5924;DHT22;2987;50.884;14.818;2022-07-23T04:20:42;16.00;99.90
5924;DHT22;2987;50.884;14.818;2022-07-23T04:23:09;16.10;99.90
5924;DHT22;2987;50.884;14.818;2022-07-23T04:25:36;16.20;99.90
5924;DHT22;2987;50.884;14.818;2022-07-23T04:28:03;16.20;99.90
5924;DHT22;2987;50.884;14.818;2022-07-23T04:30:29;16.30;99.90
5924;DHT22;2987;50.884;14.818;2022-07-23T04:32:56;16.40;99.90
5924;DHT22;2987;50.884;14.818;2022-07-23T04:35:27;16.40;99.90
5924;DHT22;2987;50.884;14.818;2022-07-23T04:37:57;16.40;99.90
5924;DHT22;2987;50.884;14.818;2022-07-23T04:40:23;16.40;99.90
5924;DHT22;2987;50.884;14.818;2022-07-23T04:42:50;16.50;99.90
5924;DHT22;2987;50.884;14.818;2022-07-23T04:45:16;16.50;99.90
5924;DHT22;2987;50.884;14.818;2022-07-23T04:47:44;16.50;99.90
5924;DHT22;2987;50.884;14.818;2022-07-23T04:50:12;16.50;99.90
5924;DHT22;2987;50.884;14.818;2022-07-23T04:52:40;16.60;99.90
5924;DHT22;2987;50.884;14.818;2022-07-23T04:55:07;16.70;99.90
5924;DHT22;2987;50.884;14.818;2022-07-23T04:57:34;16.70;99.90
5924;DHT22;2987;50.884;14.818;2022-07-23T05:00:00;16.90;99.90
5924;DHT22;2987;50.884;14.818;2022-07-23T05:02:27;17.00;99.90
5924;DHT22;2987;50.884;14.818;2022-07-23T05:04:58;17.20;99.90
5924;DHT22;2987;50.884;14.818;2022-07-23T05:07:24;17.30;99.90
5924;DHT22;2987;50.884;14.818;2022-07-23T05:09:50;17.50;99.90
5924;DHT22;2987;50.884;14.818;2022-07-23T05:12:17;17.60;99.90
5924;DHT22;2987;50.884;14.818;2022-07-23T05:14:44;17.80;99.90
5924;DHT22;2987;50.884;14.818;2022-07-23T05:17:10;17.90;99.90
5924;DHT22;2987;50.884;14.818;2022-07-23T05:19:36;18.10;99.90
5924;DHT22;2987;50.884;14.818;2022-07-23T05:22:06;18.20;99.90
5924;DHT22;2987;50.884;14.818;2022-07-23T05:24:32;18.30;99.90
5924;DHT22;2987;50.884;14.818;2022-07-23T05:26:59;18.30;99.90
5924;DHT22;2987;50.884;14.818;2022-07-23T05:29:25;18.30;99.90
5924;DHT22;2987;50.884;14.818;2022-07-23T05:31:52;18.40;99.90
5924;DHT22;2987;50.884;14.818;2022-07-23T05:34:21;18.50;99.90
5924;DHT22;2987;50.884;14.818;2022-07-23T05:36:48;18.60;99.90
5924;DHT22;2987;50.884;14.818;2022-07-23T05:39:15;18.60;99.90
5924;DHT22;2987;50.884;14.818;2022-07-23T05:41:42;18.70;99.90
5924;DHT22;2987;50.884;14.818;2022-07-23T05:44:08;18.80;99.90
5924;DHT22;2987;50.884;14.818;2022-07-23T05:46:38;18.90;99.90
5924;DHT22;2987;50.884;14.818;2022-07-23T05:49:08;19.00;99.90
5924;DHT22;2987;50.884;14.818;2022-07-23T05:51:55;19.10;99.90
5924;DHT22;2987;50.884;14.818;2022-07-23T05:54:35;19.20;99.90
5924;DHT22;2987;50.884;14.818;2022-07-23T05:57:02;19.40;99.90
5924;DHT22;2987;50.884;14.818;2022-07-23T05:59:30;19.40;99.90
5924;DHT22;2987;50.884;14.818;2022-07-23T06:01:56;19.50;99.90
5924;DHT22;2987;50.884;14.818;2022-07-23T06:04:22;19.50;99.90
5924;DHT22;2987;50.884;14.818;2022-07-23T06:07:05;19.50;99.90
5924;DHT22;2987;50.884;14.818;2022-07-23T06:09:32;19.60;99.90
5924;DHT22;2987;50.884;14.818;2022-07-23T06:11:58;19.60;99.90
5924;DHT22;2987;50.884;14.818;2022-07-23T06:14:24;19.70;99.90
5924;DHT22;2987;50.884;14.818;2022-07-23T06:16:54;19.70;99.90
5924;DHT22;2987;50.884;14.818;2022-07-23T06:19:21;19.80;99.90
5924;DHT22;2987;50.884;14.818;2022-07-23T06:21:49;19.80;99.90
5924;DHT22;2987;50.884;14.818;2022-07-23T06:24:17;19.90;99.90
5924;DHT22;2987;50.884;14.818;2022-07-23T06:26:43;20.00;99.90
5924;DHT22;2987;50.884;14.818;2022-07-23T06:29:10;20.00;99.90
5924;DHT22;2987;50.884;14.818;2022-07-23T06:31:37;20.00;99.90
5924;DHT22;2987;50.884;14.818;2022-07-23T06:34:03;20.00;99.90
5924;DHT22;2987;50.884;14.818;2022-07-23T06:36:29;20.10;99.90
5924;DHT22;2987;50.884;14.818;2022-07-23T06:38:55;20.10;99.90
5924;DHT22;2987;50.884;14.818;2022-07-23T06:41:21;20.10;99.90
5924;DHT22;2987;50.884;14.818;2022-07-23T06:43:49;20.20;99.90
5924;DHT22;2987;50.884;14.818;2022-07-23T06:46:16;20.30;99.90
5924;DHT22;2987;50.884;14.818;2022-07-23T06:48:43;20.40;99.90
5924;DHT22;2987;50.884;14.818;2022-07-23T06:51:09;20.50;99.90
5924;DHT22;2987;50.884;14.818;2022-07-23T06:53:35;20.60;99.90
5924;DHT22;2987;50.884;14.818;2022-07-23T06:56:01;20.60;99.90
5924;DHT22;2987;50.884;14.818;2022-07-23T06:58:27;20.70;99.90
5924;DHT22;2987;50.884;14.818;2022-07-23T07:00:54;20.80;99.90
5924;DHT22;2987;50.884;14.818;2022-07-23T07:03:20;20.80;99.90
5924;DHT22;2987;50.884;14.818;2022-07-23T07:05:46;20.90;99.90
5924;DHT22;2987;50.884;14.818;2022-07-23T07:08:12;21.00;99.90
5924;DHT22;2987;50.884;14.818;2022-07-23T07:10:39;21.00;99.90
5924;DHT22;2987;50.884;14.818;2022-07-23T07:13:05;21.00;99.90
5924;DHT22;2987;50.884;14.818;2022-07-23T07:15:31;21.20;99.90
5924;DHT22;2987;50.884;14.818;2022-07-23T07:17:57;21.20;99.90
5924;DHT22;2987;50.884;14.818;2022-07-23T07:20:23;21.30;99.90
5924;DHT22;2987;50.884;14.818;2022-07-23T07:22:50;21.40;99.90
5924;DHT22;2987;50.884;14.818;2022-07-23T07:25:25;21.50;99.90
5924;DHT22;2987;50.884;14.818;2022-07-23T07:27:52;21.70;99.90
5924;DHT22;2987;50.884;14.818;2022-07-23T07:30:18;21.80;99.90
5924;DHT22;2987;50.884;14.818;2022-07-23T07:32:44;21.90;99.90
5924;DHT22;2987;50.884;14.818;2022-07-23T07:35:10;22.00;99.90
5924;DHT22;2987;50.884;14.818;2022-07-23T07:37:37;22.20;99.90
5924;DHT22;2987;50.884;14.818;2022-07-23T07:40:03;22.30;99.90
5924;DHT22;2987;50.884;14.818;2022-07-23T07:42:30;22.40;99.90
5924;DHT22;2987;50.884;14.818;2022-07-23T07:44:58;22.50;99.90
5924;DHT22;2987;50.884;14.818;2022-07-23T07:47:23;22.50;99.90
5924;DHT22;2987;50.884;14.818;2022-07-23T07:49:50;22.60;99.90
5924;DHT22;2987;50.884;14.818;2022-07-23T07:52:16;22.60;99.90
5924;DHT22;2987;50.884;14.818;2022-07-23T07:54:42;22.60;99.90
5924;DHT22;2987;50.884;14.818;2022-07-23T07:57:08;22.70;99.90
5924;DHT22;2987;50.884;14.818;2022-07-23T07:59:35;22.90;99.90
5924;DHT22;2987;50.884;14.818;2022-07-23T08:02:01;23.10;99.90
5924;DHT22;2987;50.884;14.818;2022-07-23T08:04:27;23.20;99.90
5924;DHT22;2987;50.884;14.818;2022-07-23T08:06:53;23.40;99.90
5924;DHT22;2987;50.884;14.818;2022-07-23T08:09:19;23.40;99.90
5924;DHT22;2987;50.884;14.818;2022-07-23T08:11:46;23.50;99.90
5924;DHT22;2987;50.884;14.818;2022-07-23T08:14:12;23.50;99.90
5924;DHT22;2987;50.884;14.818;2022-07-23T08:16:39;23.40;99.90
5924;DHT22;2987;50.884;14.818;2022-07-23T08:19:05;23.30;99.90
5924;DHT22;2987;50.884;14.818;2022-07-23T08:21:31;23.40;99.90
5924;DHT22;2987;50.884;14.818;2022-07-23T08:23:58;23.50;99.90
5924;DHT22;2987;50.884;14.818;2022-07-23T08:26:24;23.60;99.90
5924;DHT22;2987;50.884;14.818;2022-07-23T08:28:50;23.70;99.90
5924;DHT22;2987;50.884;14.818;2022-07-23T08:31:17;23.60;99.90
5924;DHT22;2987;50.884;14.818;2022-07-23T08:33:44;23.50;99.90
5924;DHT22;2987;50.884;14.818;2022-07-23T08:36:10;23.30;99.90
5924;DHT22;2987;50.884;14.818;2022-07-23T08:38:37;23.20;99.90
5924;DHT22;2987;50.884;14.818;2022-07-23T08:41:03;23.00;99.90
5924;DHT22;2987;50.884;14.818;2022-07-23T08:43:32;22.90;99.90
5924;DHT22;2987;50.884;14.818;2022-07-23T08:46:02;23.00;99.90
5924;DHT22;2987;50.884;14.818;2022-07-23T08:48:32;23.00;99.90
5924;DHT22;2987;50.884;14.818;2022-07-23T08:51:01;23.10;99.90
5924;DHT22;2987;50.884;14.818;2022-07-23T08:53:28;23.30;99.90
5924;DHT22;2987;50.884;14.818;2022-07-23T08:55:57;23.50;99.90
5924;DHT22;2987;50.884;14.818;2022-07-23T08:58:24;23.60;99.90
5924;DHT22;2987;50.884;14.818;2022-07-23T09:00:51;24.00;99.90
5924;DHT22;2987;50.884;14.818;2022-07-23T09:03:20;24.30;99.90
5924;DHT22;2987;50.884;14.818;2022-07-23T09:05:50;24.80;99.90
5924;DHT22;2987;50.884;14.818;2022-07-23T09:08:18;25.00;99.90
5924;DHT22;2987;50.884;14.818;2022-07-23T09:10:50;25.00;99.90
5924;DHT22;2987;50.884;14.818;2022-07-23T09:13:39;25.30;99.90
5924;DHT22;2987;50.884;14.818;2022-07-23T09:18:35;25.30;99.90
5924;DHT22;2987;50.884;14.818;2022-07-23T09:21:14;25.70;99.90
5924;DHT22;2987;50.884;14.818;2022-07-23T09:23:44;26.00;99.90
5924;DHT22;2987;50.884;14.818;2022-07-23T09:26:22;26.20;99.90
5924;DHT22;2987;50.884;14.818;2022-07-23T09:28:53;26.10;99.90
5924;DHT22;2987;50.884;14.818;2022-07-23T09:31:21;26.30;99.90
5924;DHT22;2987;50.884;14.818;2022-07-23T09:33:47;26.20;99.90
5924;DHT22;2987;50.884;14.818;2022-07-23T09:36:14;26.60;99.90
5924;DHT22;2987;50.884;14.818;2022-07-23T09:38:49;26.80;99.90
5924;DHT22;2987;50.884;14.818;2022-07-23T09:41:16;26.60;99.90
5924;DHT22;2987;50.884;14.818;2022-07-23T09:43:42;26.80;99.90
5924;DHT22;2987;50.884;14.818;2022-07-23T09:46:26;27.10;99.90
5924;DHT22;2987;50.884;14.818;2022-07-23T09:48:54;27.30;99.90
5924;DHT22;2987;50.884;14.818;2022-07-23T09:51:24;27.70;99.90
5924;DHT22;2987;50.884;14.818;2022-07-23T09:54:02;28.00;99.90
5924;DHT22;2987;50.884;14.818;2022-07-23T09:56:31;28.00;99.90
5924;DHT22;2987;50.884;14.818;2022-07-23T09:58:59;28.10;99.90
5924;DHT22;2987;50.884;14.818;2022-07-23T10:01:32;27.80;99.90
5924;DHT22;2987;50.884;14.818;2022-07-23T10:03:59;27.50;99.90
5924;DHT22;2987;50.884;14.818;2022-07-23T10:06:48;27.40;99.90
5924;DHT22;2987;50.884;14.818;2022-07-23T10:09:39;27.50;99.90
5924;DHT22;2987;50.884;14.818;2022-07-23T10:12:13;27.40;99.90
5924;DHT22;2987;50.884;14.818;2022-07-23T10:15:00;27.30;99.90
5924;DHT22;2987;50.884;14.818;2022-07-23T10:17:28;27.30;99.90
5924;DHT22;2987;50.884;14.818;2022-07-23T10:19:55;27.00;99.90
5924;DHT22;2987;50.884;14.818;2022-07-23T10:22:23;27.10;99.90
5924;DHT22;2987;50.884;14.818;2022-07-23T10:25:17;27.00;99.90
5924;DHT22;2987;50.884;14.818;2022-07-23T10:33:39;27.00;99.90
5924;DHT22;2987;50.884;14.818;2022-07-23T10:41:17;26.90;99.90
5924;DHT22;2987;50.884;14.818;2022-07-23T10:44:10;26.80;99.90
5924;DHT22;2987;50.884;14.818;2022-07-23T10:46:56;26.60;99.90
5924;DHT22;2987;50.884;14.818;2022-07-23T10:49:43;26.80;99.90
5924;DHT22;2987;50.884;14.818;2022-07-23T10:52:20;27.00;99.90
5924;DHT22;2987;50.884;14.818;2022-07-23T10:54:50;27.30;99.90
5924;DHT22;2987;50.884;14.818;2022-07-23T10:57:19;27.30;99.90
5924;DHT22;2987;50.884;14.818;2022-07-23T11:00:08;27.30;99.90
5924;DHT22;2987;50.884;14.818;2022-07-23T11:02:37;27.10;99.90
5924;DHT22;2987;50.884;14.818;2022-07-23T11:05:09;27.10;99.90
5924;DHT22;2987;50.884;14.818;2022-07-23T11:07:37;27.20;99.90
5924;DHT22;2987;50.884;14.818;2022-07-23T11:10:44;27.40;99.90
5924;DHT22;2987;50.884;14.818;2022-07-23T11:16:21;28.00;99.90
5924;DHT22;2987;50.884;14.818;2022-07-23T11:18:53;28.30;99.90
5924;DHT22;2987;50.884;14.818;2022-07-23T11:21:40;28.50;99.90
5924;DHT22;2987;50.884;14.818;2022-07-23T11:24:10;28.80;99.90
5924;DHT22;2987;50.884;14.818;2022-07-23T11:26:47;28.70;99.90
5924;DHT22;2987;50.884;14.818;2022-07-23T11:29:37;28.60;99.90
5924;DHT22;2987;50.884;14.818;2022-07-23T11:32:27;28.70;99.90
5924;DHT22;2987;50.884;14.818;2022-07-23T11:34:54;28.70;99.90
5924;DHT22;2987;50.884;14.818;2022-07-23T11:37:39;28.70;99.90
5924;DHT22;2987;50.884;14.818;2022-07-23T11:40:09;28.80;99.90
5924;DHT22;2987;50.884;14.818;2022-07-23T11:42:37;28.40;99.90
5924;DHT22;2987;50.884;14.818;2022-07-23T11:45:06;28.10;99.90
5924;DHT22;2987;50.884;14.818;2022-07-23T11:47:33;27.70;99.90
5924;DHT22;2987;50.884;14.818;2022-07-23T11:50:02;27.40;99.90
5924;DHT22;2987;50.884;14.818;2022-07-23T11:52:29;27.40;99.90
5924;DHT22;2987;50.884;14.818;2022-07-23T11:54:58;27.20;99.90
5924;DHT22;2987;50.884;14.818;2022-07-23T11:57:28;27.20;99.90
5924;DHT22;2987;50.884;14.818;2022-07-23T12:00:06;27.00;99.90
5924;DHT22;2987;50.884;14.818;2022-07-23T12:02:51;27.10;99.90
5924;DHT22;2987;50.884;14.818;2022-07-23T12:05:22;27.00;99.90
5924;DHT22;2987;50.884;14.818;2022-07-23T12:07:51;26.90;99.90
5924;DHT22;2987;50.884;14.818;2022-07-23T12:10:21;26.90;99.90
5924;DHT22;2987;50.884;14.818;2022-07-23T12:12:52;27.10;99.90
5924;DHT22;2987;50.884;14.818;2022-07-23T12:15:21;27.00;99.90
5924;DHT22;2987;50.884;14.818;2022-07-23T12:17:50;27.20;99.90
5924;DHT22;2987;50.884;14.818;2022-07-23T12:20:21;27.30;99.90
5924;DHT22;2987;50.884;14.818;2022-07-23T12:22:50;27.40;99.90
5924;DHT22;2987;50.884;14.818;2022-07-23T12:25:21;27.40;99.90
5924;DHT22;2987;50.884;14.818;2022-07-23T12:28:14;27.40;99.90
5924;DHT22;2987;50.884;14.818;2022-07-23T12:30:43;27.30;99.90
5924;DHT22;2987;50.884;14.818;2022-07-23T12:33:13;27.50;99.90
5924;DHT22;2987;50.884;14.818;2022-07-23T12:35:43;27.50;99.90
5924;DHT22;2987;50.884;14.818;2022-07-23T12:38:43;27.60;99.90
5924;DHT22;2987;50.884;14.818;2022-07-23T12:41:11;27.40;99.90
5924;DHT22;2987;50.884;14.818;2022-07-23T12:43:39;27.10;99.90
5924;DHT22;2987;50.884;14.818;2022-07-23T12:46:10;26.90;99.90
5924;DHT22;2987;50.884;14.818;2022-07-23T12:48:40;26.70;99.90
5924;DHT22;2987;50.884;14.818;2022-07-23T12:51:22;26.60;99.90
5924;DHT22;2987;50.884;14.818;2022-07-23T12:53:51;26.50;99.90
5924;DHT22;2987;50.884;14.818;2022-07-23T12:56:44;26.80;99.90
5924;DHT22;2987;50.884;14.818;2022-07-23T12:59:13;27.10;99.90
5924;DHT22;2987;50.884;14.818;2022-07-23T13:01:56;27.40;99.90
5924;DHT22;2987;50.884;14.818;2022-07-23T13:04:25;27.70;99.90
5924;DHT22;2987;50.884;14.818;2022-07-23T13:06:56;27.80;99.90
5924;DHT22;2987;50.884;14.818;2022-07-23T13:09:28;27.70;99.90
5924;DHT22;2987;50.884;14.818;2022-07-23T13:11:56;27.70;99.90
5924;DHT22;2987;50.884;14.818;2022-07-23T13:14:23;27.50;99.90
5924;DHT22;2987;50.884;14.818;2022-07-23T13:16:51;27.30;99.90
5924;DHT22;2987;50.884;14.818;2022-07-23T13:19:18;27.20;99.90
5924;DHT22;2987;50.884;14.818;2022-07-23T13:21:45;27.20;99.90
5924;DHT22;2987;50.884;14.818;2022-07-23T13:24:12;27.30;99.90
5924;DHT22;2987;50.884;14.818;2022-07-23T13:26:38;27.40;99.90
5924;DHT22;2987;50.884;14.818;2022-07-23T13:29:05;27.20;99.90
5924;DHT22;2987;50.884;14.818;2022-07-23T13:31:33;26.90;99.90
5924;DHT22;2987;50.884;14.818;2022-07-23T13:34:01;26.70;99.90
5924;DHT22;2987;50.884;14.818;2022-07-23T13:36:27;26.70;99.90
5924;DHT22;2987;50.884;14.818;2022-07-23T13:38:53;26.60;99.90
5924;DHT22;2987;50.884;14.818;2022-07-23T13:41:19;26.60;99.90
5924;DHT22;2987;50.884;14.818;2022-07-23T13:43:45;26.60;99.90
5924;DHT22;2987;50.884;14.818;2022-07-23T13:46:12;26.60;99.90
5924;DHT22;2987;50.884;14.818;2022-07-23T13:48:38;26.60;99.90
5924;DHT22;2987;50.884;14.818;2022-07-23T13:51:04;26.50;99.90
5924;DHT22;2987;50.884;14.818;2022-07-23T13:53:30;26.40;99.90
5924;DHT22;2987;50.884;14.818;2022-07-23T13:55:57;26.30;99.90
5924;DHT22;2987;50.884;14.818;2022-07-23T13:58:23;26.20;99.90
5924;DHT22;2987;50.884;14.818;2022-07-23T14:00:52;25.90;99.90
5924;DHT22;2987;50.884;14.818;2022-07-23T14:03:20;25.80;99.90
5924;DHT22;2987;50.884;14.818;2022-07-23T14:05:49;25.50;99.90
5924;DHT22;2987;50.884;14.818;2022-07-23T14:08:15;25.40;99.90
5924;DHT22;2987;50.884;14.818;2022-07-23T14:10:41;25.30;99.90
5924;DHT22;2987;50.884;14.818;2022-07-23T14:13:08;25.10;99.90
5924;DHT22;2987;50.884;14.818;2022-07-23T14:15:34;25.00;99.90
5924;DHT22;2987;50.884;14.818;2022-07-23T14:18:01;24.90;99.90
5924;DHT22;2987;50.884;14.818;2022-07-23T14:20:27;24.90;99.90
5924;DHT22;2987;50.884;14.818;2022-07-23T14:22:53;24.90;99.90
5924;DHT22;2987;50.884;14.818;2022-07-23T14:25:21;25.00;99.90
5924;DHT22;2987;50.884;14.818;2022-07-23T14:27:48;25.10;99.90
5924;DHT22;2987;50.884;14.818;2022-07-23T14:30:14;25.10;99.90
5924;DHT22;2987;50.884;14.818;2022-07-23T14:32:41;25.10;99.90
5924;DHT22;2987;50.884;14.818;2022-07-23T14:35:07;25.10;99.90
5924;DHT22;2987;50.884;14.818;2022-07-23T14:37:34;24.90;99.90
5924;DHT22;2987;50.884;14.818;2022-07-23T14:40:00;24.80;99.90
5924;DHT22;2987;50.884;14.818;2022-07-23T14:42:27;24.70;99.90
5924;DHT22;2987;50.884;14.818;2022-07-23T14:44:53;24.60;99.90
5924;DHT22;2987;50.884;14.818;2022-07-23T14:47:19;24.50;99.90
5924;DHT22;2987;50.884;14.818;2022-07-23T14:49:45;24.50;99.90
5924;DHT22;2987;50.884;14.818;2022-07-23T14:52:12;24.50;99.90
5924;DHT22;2987;50.884;14.818;2022-07-23T14:54:38;24.50;99.90
5924;DHT22;2987;50.884;14.818;2022-07-23T14:57:04;24.60;99.90
5924;DHT22;2987;50.884;14.818;2022-07-23T14:59:30;24.50;99.90
5924;DHT22;2987;50.884;14.818;2022-07-23T15:01:57;24.50;99.90
5924;DHT22;2987;50.884;14.818;2022-07-23T15:04:24;24.40;99.90
5924;DHT22;2987;50.884;14.818;2022-07-23T15:06:51;24.30;99.90
5924;DHT22;2987;50.884;14.818;2022-07-23T15:09:18;24.30;99.90
5924;DHT22;2987;50.884;14.818;2022-07-23T15:11:44;24.30;99.90
5924;DHT22;2987;50.884;14.818;2022-07-23T15:14:11;24.30;99.90
5924;DHT22;2987;50.884;14.818;2022-07-23T15:16:37;24.20;99.90
5924;DHT22;2987;50.884;14.818;2022-07-23T15:19:03;24.10;99.90
5924;DHT22;2987;50.884;14.818;2022-07-23T15:21:30;24.10;99.90
5924;DHT22;2987;50.884;14.818;2022-07-23T15:23:57;24.20;99.90
5924;DHT22;2987;50.884;14.818;2022-07-23T15:26:26;24.30;99.90
5924;DHT22;2987;50.884;14.818;2022-07-23T15:28:52;24.40;99.90
5924;DHT22;2987;50.884;14.818;2022-07-23T15:31:19;24.60;99.90
5924;DHT22;2987;50.884;14.818;2022-07-23T15:33:45;24.70;99.90
5924;DHT22;2987;50.884;14.818;2022-07-23T15:36:11;24.70;99.90
5924;DHT22;2987;50.884;14.818;2022-07-23T15:38:37;24.70;99.90
5924;DHT22;2987;50.884;14.818;2022-07-23T15:41:04;24.80;99.90
5924;DHT22;2987;50.884;14.818;2022-07-23T15:43:30;24.80;99.90
5924;DHT22;2987;50.884;14.818;2022-07-23T15:45:57;24.80;99.90
5924;DHT22;2987;50.884;14.818;2022-07-23T15:48:23;24.80;99.90
5924;DHT22;2987;50.884;14.818;2022-07-23T15:50:50;24.70;99.90
5924;DHT22;2987;50.884;14.818;2022-07-23T15:53:16;24.60;99.90
5924;DHT22;2987;50.884;14.818;2022-07-23T15:55:43;24.60;99.90
5924;DHT22;2987;50.884;14.818;2022-07-23T15:58:10;24.60;99.90
5924;DHT22;2987;50.884;14.818;2022-07-23T16:00:37;24.60;99.90
5924;DHT22;2987;50.884;14.818;2022-07-23T16:03:03;24.60;99.90
5924;DHT22;2987;50.884;14.818;2022-07-23T16:05:30;24.50;99.90
5924;DHT22;2987;50.884;14.818;2022-07-23T16:07:56;24.60;99.90
5924;DHT22;2987;50.884;14.818;2022-07-23T16:10:22;24.60;99.90
5924;DHT22;2987;50.884;14.818;2022-07-23T16:12:48;24.60;99.90